createdAt,value
2023-04-08T00:01:24.191Z,22.62
2023-04-08T00:03:50.785Z,23.56
2023-04-08T00:06:17.462Z,24.10
2023-04-08T00:08:44.086Z,22.68
2023-04-08T00:11:10.621Z,23.11
2023-04-08T00:13:37.207Z,24.29
2023-04-08T00:16:03.811Z,22.80
2023-04-08T00:18:30.359Z,22.61
2023-04-08T00:20:57.383Z,22.40
2023-04-08T00:23:24.063Z,22.87
2023-04-08T00:25:51.180Z,23.14
2023-04-08T00:28:17.711Z,22.37
2023-04-08T00:30:44.279Z,23.63
2023-04-08T00:33:10.848Z,23.87
2023-04-08T00:35:37.456Z,23.85
2023-04-08T00:38:08.039Z,24.70
2023-04-08T00:40:35.710Z,24.50
2023-04-08T00:43:02.181Z,24.53
2023-04-08T00:45:28.730Z,23.71
2023-04-08T00:47:56.378Z,22.93
2023-04-08T00:50:22.920Z,23.86
2023-04-08T00:52:49.421Z,23.42
2023-04-08T00:55:16.255Z,23.40
2023-04-08T00:57:42.938Z,22.87
2023-04-08T01:00:09.966Z,23.50
2023-04-08T01:02:44.215Z,24.75
2023-04-08T01:05:29.083Z,24.35
2023-04-08T01:07:56.449Z,23.90
2023-04-08T01:10:27.653Z,23.52
2023-04-08T01:12:56.190Z,24.67
2023-04-08T01:15:25.001Z,24.07
2023-04-08T01:17:54.516Z,23.37
2023-04-08T01:20:22.871Z,23.82
2023-04-08T01:22:58.457Z,23.99
2023-04-08T01:25:30.593Z,24.96
2023-04-08T01:27:58.534Z,24.70
2023-04-08T01:30:26.289Z,24.90
2023-04-08T01:32:54.727Z,25.16
2023-04-08T01:35:21.536Z,24.51
2023-04-08T01:37:50.912Z,24.46
2023-04-08T01:40:20.680Z,23.23
2023-04-08T01:42:53.109Z,24.44
2023-04-08T01:45:20.261Z,24.45
2023-04-08T01:47:48.657Z,23.42
2023-04-08T01:50:16.845Z,24.50
2023-04-08T01:52:49.064Z,24.41
2023-04-08T01:55:16.446Z,24.38
2023-04-08T01:57:47.797Z,24.78
2023-04-08T02:00:15.940Z,25.63
2023-04-08T02:02:43.359Z,25.65
2023-04-08T02:05:10.058Z,25.51
2023-04-08T02:07:36.689Z,25.38
2023-04-08T02:10:03.784Z,25.11
2023-04-08T02:12:31.137Z,26.06
2023-04-08T02:14:57.937Z,25.75
2023-04-08T02:17:35.330Z,26.41
2023-04-08T02:20:05.593Z,26.70
2023-04-08T02:22:58.737Z,25.31
2023-04-08T02:25:26.045Z,27.01
2023-04-08T02:27:54.628Z,26.36
2023-04-08T02:30:22.516Z,26.55
2023-04-08T02:32:50.314Z,25.30
2023-04-08T02:35:18.102Z,24.61
2023-04-08T02:37:46.094Z,25.25
2023-04-08T02:40:23.490Z,25.42
2023-04-08T02:42:50.741Z,26.05
2023-04-08T02:45:17.893Z,25.93
2023-04-08T02:47:44.565Z,25.85
2023-04-08T02:50:11.157Z,24.35
2023-04-08T02:52:37.620Z,26.07
2023-04-08T02:55:06.605Z,26.21
2023-04-08T02:57:33.219Z,25.20
2023-04-08T02:59:59.885Z,26.18
2023-04-08T03:02:26.497Z,26.77
2023-04-08T03:04:53.064Z,29.52
2023-04-08T03:07:19.552Z,31.15
2023-04-08T03:09:46.135Z,32.13
2023-04-08T03:12:12.699Z,30.51
2023-04-08T03:14:39.200Z,33.19
2023-04-08T03:17:05.940Z,32.78
2023-04-08T03:19:32.546Z,32.42
2023-04-08T03:21:59.076Z,32.22
2023-04-08T03:24:25.714Z,32.51
2023-04-08T03:26:52.267Z,32.75
2023-04-08T03:29:18.907Z,32.56
2023-04-08T03:31:45.791Z,35.16
2023-04-08T03:34:12.417Z,35.05
2023-04-08T03:36:38.992Z,34.45
2023-04-08T03:39:05.878Z,34.51
2023-04-08T03:41:32.440Z,32.27
2023-04-08T03:43:59.016Z,32.12
2023-04-08T03:46:25.813Z,31.07
2023-04-08T03:48:52.886Z,31.43
2023-04-08T03:51:19.542Z,31.31
2023-04-08T03:53:48.252Z,31.88
2023-04-08T03:56:15.420Z,32.17
2023-04-08T03:58:41.917Z,32.88
2023-04-08T04:01:08.470Z,33.14
2023-04-08T04:03:35.139Z,31.47
2023-04-08T04:06:01.701Z,31.87
2023-04-08T04:08:28.159Z,31.34
2023-04-08T04:10:54.800Z,29.81
2023-04-08T04:13:22.001Z,30.22
2023-04-08T04:15:48.552Z,30.27
2023-04-08T04:18:15.346Z,29.88
2023-04-08T04:20:42.679Z,29.49
2023-04-08T04:23:09.840Z,29.13
2023-04-08T04:25:36.460Z,29.41
2023-04-08T04:28:03.311Z,27.64
2023-04-08T04:30:29.780Z,27.34
2023-04-08T04:32:57.684Z,26.00
2023-04-08T04:35:24.325Z,27.13
2023-04-08T04:37:51.887Z,27.70
2023-04-08T04:40:18.487Z,26.01
2023-04-08T04:42:45.385Z,26.01
2023-04-08T04:45:12.473Z,25.06
2023-04-08T04:47:39.071Z,25.00
2023-04-08T04:50:06.041Z,25.14
2023-04-08T04:52:32.939Z,24.32
2023-04-08T04:54:59.572Z,23.47
2023-04-08T04:57:26.254Z,24.12
2023-04-08T04:59:52.987Z,23.27
2023-04-08T05:02:19.557Z,22.37
2023-04-08T05:04:46.382Z,22.71
2023-04-08T05:07:12.932Z,22.31
2023-04-08T05:09:39.497Z,21.94
2023-04-08T05:12:06.082Z,20.51
2023-04-08T05:14:33.420Z,20.26
2023-04-08T05:16:59.960Z,20.17
2023-04-08T05:19:26.495Z,20.15
2023-04-08T05:21:53.004Z,20.57
2023-04-08T05:24:19.542Z,21.22
2023-04-08T05:26:46.469Z,22.27
2023-04-08T05:29:13.032Z,21.12
2023-04-08T05:31:39.587Z,21.14
2023-04-08T05:34:06.280Z,21.42
2023-04-08T05:36:32.961Z,20.37
2023-04-08T05:39:00.708Z,20.97
2023-04-08T05:41:28.053Z,19.82
2023-04-08T05:43:54.575Z,20.64
2023-04-08T05:46:21.162Z,20.60
2023-04-08T05:48:47.813Z,21.35
2023-04-08T05:51:15.457Z,20.82
2023-04-08T05:53:42.071Z,19.89
2023-04-08T05:56:08.592Z,21.26
2023-04-08T05:58:35.209Z,20.53
2023-04-08T06:01:01.706Z,19.91
2023-04-08T06:03:28.683Z,20.19
2023-04-08T06:05:55.321Z,20.67
2023-04-08T06:08:21.964Z,19.49
2023-04-08T06:10:49.100Z,21.51
2023-04-08T06:13:16.120Z,19.23
2023-04-08T06:15:42.804Z,18.87
2023-04-08T06:18:09.329Z,20.60
2023-04-08T06:20:36.305Z,19.93
2023-04-08T06:23:03.018Z,19.95
2023-04-08T06:25:29.464Z,19.79
2023-04-08T06:27:56.074Z,19.42
2023-04-08T06:30:22.650Z,20.25
2023-04-08T06:32:49.405Z,19.32
2023-04-08T06:35:16.117Z,20.44
2023-04-08T06:37:43.207Z,20.63
2023-04-08T06:40:09.984Z,20.29
2023-04-08T06:42:38.257Z,19.83
2023-04-08T06:45:05.009Z,19.72
2023-04-08T06:47:31.818Z,19.63
2023-04-08T06:49:58.446Z,19.85
2023-04-08T06:52:25.139Z,18.79
2023-04-08T06:54:51.756Z,19.28
2023-04-08T06:57:18.493Z,19.03
2023-04-08T06:59:44.990Z,18.77
2023-04-08T07:02:11.773Z,18.77
2023-04-08T07:04:38.242Z,18.44
2023-04-08T07:07:04.791Z,18.23
2023-04-08T07:09:31.475Z,17.72
2023-04-08T07:11:58.587Z,17.91
2023-04-08T07:14:25.360Z,18.18
2023-04-08T07:16:52.087Z,17.74
2023-04-08T07:19:18.696Z,17.47
2023-04-08T07:21:45.327Z,17.69
2023-04-08T07:24:11.806Z,18.88
2023-04-08T07:26:38.791Z,17.98
2023-04-08T07:29:05.328Z,18.71
2023-04-08T07:31:32.234Z,17.37
2023-04-08T07:33:59.303Z,17.58
2023-04-08T07:36:26.539Z,17.36
2023-04-08T07:38:53.272Z,18.69
2023-04-08T07:41:19.949Z,17.69
2023-04-08T07:43:46.813Z,16.85
2023-04-08T07:46:13.390Z,17.17
2023-04-08T07:48:39.932Z,17.30
2023-04-08T07:51:09.936Z,17.71
2023-04-08T07:53:38.875Z,17.38
2023-04-08T07:56:11.234Z,17.68
2023-04-08T07:58:38.051Z,16.41
2023-04-08T08:01:05.244Z,16.00
2023-04-08T08:03:33.857Z,15.64
2023-04-08T08:06:00.840Z,15.68
2023-04-08T08:08:27.365Z,14.43
2023-04-08T08:10:53.876Z,13.93
2023-04-08T08:13:22.212Z,14.05
2023-04-08T08:15:53.473Z,14.52
2023-04-08T08:18:20.554Z,14.30
2023-04-08T08:20:47.348Z,14.35
2023-04-08T08:23:13.920Z,13.93
2023-04-08T08:25:40.485Z,14.20
2023-04-08T08:28:07.111Z,13.68
2023-04-08T08:30:34.271Z,14.40
2023-04-08T08:33:01.201Z,13.19
2023-04-08T08:35:27.776Z,13.55
2023-04-08T08:37:54.272Z,13.57
2023-04-08T08:40:20.858Z,12.85
2023-04-08T08:42:52.377Z,11.49
2023-04-08T08:45:22.371Z,11.32
2023-04-08T08:47:51.032Z,11.33
2023-04-08T08:50:18.637Z,10.64
2023-04-08T08:52:48.849Z,10.18
2023-04-08T08:55:31.643Z,10.10
2023-04-08T08:58:02.908Z,9.96
2023-04-08T09:00:34.768Z,10.75
2023-04-08T09:03:21.844Z,10.26
2023-04-08T09:05:55.626Z,10.06
2023-04-08T09:08:28.205Z,10.79
2023-04-08T09:10:55.714Z,11.42
2023-04-08T09:13:23.783Z,10.44
2023-04-08T09:16:05.237Z,10.41
2023-04-08T09:18:32.823Z,11.06
2023-04-08T09:20:59.976Z,11.52
2023-04-08T09:23:37.798Z,12.57
2023-04-08T09:26:24.786Z,12.81
2023-04-08T09:29:14.362Z,11.25
2023-04-08T09:31:53.874Z,12.31
2023-04-08T09:34:21.920Z,12.27
2023-04-08T09:36:49.178Z,11.78
2023-04-08T09:39:16.123Z,11.79
2023-04-08T09:41:43.724Z,13.35
2023-04-08T09:44:11.808Z,14.42
2023-04-08T09:46:38.388Z,11.88
2023-04-08T09:49:12.955Z,13.36
2023-04-08T09:52:01.034Z,12.66
2023-04-08T09:54:46.380Z,11.55
2023-04-08T09:57:36.055Z,12.98
2023-04-08T10:00:11.060Z,12.66
2023-04-08T10:02:46.234Z,14.12
2023-04-08T10:05:14.034Z,13.44
2023-04-08T10:07:41.455Z,13.20
2023-04-08T10:10:10.951Z,12.54
2023-04-08T10:12:38.058Z,12.24
2023-04-08T10:15:26.111Z,12.16
2023-04-08T10:17:57.081Z,10.86
2023-04-08T10:20:35.971Z,10.03
2023-04-08T10:23:04.175Z,13.10
2023-04-08T10:25:32.293Z,11.69
2023-04-08T10:28:00.234Z,13.89
2023-04-08T10:30:31.263Z,13.76
2023-04-08T10:33:01.951Z,13.07
2023-04-08T10:35:42.918Z,12.38
2023-04-08T10:38:09.639Z,11.00
2023-04-08T10:40:41.552Z,12.86
2023-04-08T10:43:09.130Z,12.84
2023-04-08T10:45:36.234Z,11.13
2023-04-08T10:48:31.924Z,12.11
2023-04-08T10:51:03.817Z,9.99
2023-04-08T10:53:30.384Z,11.25
2023-04-08T10:56:07.562Z,11.74
2023-04-08T10:58:35.022Z,11.06
2023-04-08T11:01:06.897Z,11.09
2023-04-08T11:03:48.597Z,11.44
2023-04-08T11:06:16.033Z,9.97
2023-04-08T11:08:43.989Z,10.00
2023-04-08T11:11:11.795Z,10.42
2023-04-08T11:13:51.142Z,10.32
2023-04-08T11:16:19.496Z,10.80
2023-04-08T11:18:46.216Z,9.67
2023-04-08T11:21:12.848Z,10.49
2023-04-08T11:23:39.402Z,10.15
2023-04-08T11:26:06.507Z,9.85
2023-04-08T11:28:35.621Z,9.65
2023-04-08T11:31:04.274Z,9.27
2023-04-08T11:33:32.147Z,10.03
2023-04-08T11:36:01.688Z,10.35
2023-04-08T11:38:28.554Z,10.28
2023-04-08T11:40:56.090Z,10.80
2023-04-08T11:43:23.425Z,9.97
2023-04-08T11:45:50.482Z,10.12
2023-04-08T11:48:18.038Z,10.13
2023-04-08T11:50:45.020Z,9.08
2023-04-08T11:53:18.498Z,8.89
2023-04-08T11:55:45.274Z,9.20
2023-04-08T11:58:11.884Z,9.57
2023-04-08T12:00:38.803Z,9.72
2023-04-08T12:03:06.050Z,9.06
2023-04-08T12:05:32.609Z,9.96
2023-04-08T12:07:59.429Z,9.11
2023-04-08T12:10:26.002Z,8.52
2023-04-08T12:12:52.509Z,9.24
2023-04-08T12:15:19.245Z,9.13
2023-04-08T12:17:45.769Z,10.64
2023-04-08T12:20:12.727Z,10.29
2023-04-08T12:22:40.007Z,9.68
2023-04-08T12:25:06.759Z,10.11
2023-04-08T12:27:33.584Z,10.37
2023-04-08T12:30:00.913Z,9.67
2023-04-08T12:32:27.591Z,10.62
2023-04-08T12:34:54.341Z,9.56
2023-04-08T12:37:21.017Z,9.90
2023-04-08T12:39:47.914Z,9.52
2023-04-08T12:42:14.613Z,9.92
2023-04-08T12:44:41.080Z,10.53
2023-04-08T12:47:07.560Z,10.29
2023-04-08T12:49:42.876Z,8.40
2023-04-08T12:52:15.642Z,9.26
2023-04-08T12:54:42.180Z,10.42
2023-04-08T12:57:08.835Z,9.78
2023-04-08T12:59:35.388Z,9.23
2023-04-08T13:02:02.088Z,9.17
2023-04-08T13:04:28.595Z,10.20
2023-04-08T13:06:55.613Z,10.66
2023-04-08T13:09:22.511Z,9.49
2023-04-08T13:11:49.023Z,9.70
2023-04-08T13:14:15.638Z,9.69
2023-04-08T13:16:42.206Z,8.91
2023-04-08T13:19:08.749Z,9.04
2023-04-08T13:21:35.454Z,9.06
2023-04-08T13:24:02.193Z,8.60
2023-04-08T13:26:28.841Z,9.40
2023-04-08T13:28:57.841Z,8.76
2023-04-08T13:31:24.875Z,8.64
2023-04-08T13:33:51.446Z,9.11
2023-04-08T13:36:18.156Z,9.60
2023-04-08T13:38:45.722Z,10.38
2023-04-08T13:41:12.428Z,12.08
2023-04-08T13:43:38.876Z,12.40
2023-04-08T13:46:05.569Z,10.92
2023-04-08T13:48:32.369Z,11.69
2023-04-08T13:50:58.919Z,11.82
2023-04-08T13:53:25.400Z,11.29
2023-04-08T13:55:55.101Z,13.39
2023-04-08T13:58:24.189Z,13.20
2023-04-08T14:00:54.071Z,12.58
2023-04-08T14:03:21.069Z,10.07
2023-04-08T14:05:47.922Z,10.88
2023-04-08T14:08:14.450Z,12.73
2023-04-08T14:10:42.326Z,12.14
2023-04-08T14:13:09.406Z,13.45
2023-04-08T14:15:36.200Z,13.38
2023-04-08T14:18:03.258Z,14.18
2023-04-08T14:20:29.927Z,14.36
2023-04-08T14:22:56.759Z,13.30
2023-04-08T14:25:23.666Z,14.85
2023-04-08T14:27:58.120Z,15.47
2023-04-08T14:30:25.761Z,16.88
2023-04-08T14:32:52.762Z,19.14
2023-04-08T14:35:19.333Z,19.68
2023-04-08T14:37:45.866Z,16.76
2023-04-08T14:40:12.494Z,17.17
2023-04-08T14:42:39.178Z,16.08
2023-04-08T14:45:06.111Z,15.06
2023-04-08T14:47:32.756Z,15.78
2023-04-08T14:49:59.279Z,13.57
2023-04-08T14:52:25.822Z,14.09
2023-04-08T14:54:53.786Z,14.11
2023-04-08T14:57:20.390Z,12.61
2023-04-08T14:59:46.960Z,12.27
2023-04-08T15:02:13.977Z,12.29
2023-04-08T15:04:40.925Z,11.44
2023-04-08T15:07:07.589Z,11.64
2023-04-08T15:09:34.115Z,14.62
2023-04-08T15:12:01.202Z,12.73
2023-04-08T15:14:28.157Z,11.30
2023-04-08T15:16:54.737Z,12.30
2023-04-08T15:19:21.275Z,10.50
2023-04-08T15:21:47.990Z,10.38
2023-04-08T15:24:14.506Z,9.79
2023-04-08T15:26:41.142Z,10.99
2023-04-08T15:29:08.092Z,10.90
2023-04-08T15:31:35.275Z,10.51
2023-04-08T15:34:02.855Z,10.24
2023-04-08T15:36:29.979Z,11.49
2023-04-08T15:38:56.830Z,11.03
2023-04-08T15:41:23.445Z,12.09
2023-04-08T15:43:50.302Z,11.70
2023-04-08T15:46:22.937Z,11.17
2023-04-08T15:48:50.161Z,11.72
2023-04-08T15:51:16.980Z,13.08
2023-04-08T15:53:43.486Z,12.91
2023-04-08T15:56:16.682Z,13.40
2023-04-08T15:58:44.145Z,13.79
2023-04-08T16:01:11.493Z,14.29
2023-04-08T16:03:39.116Z,15.83
2023-04-08T16:06:06.249Z,14.06
2023-04-08T16:08:33.978Z,16.11
2023-04-08T16:11:04.106Z,17.58
2023-04-08T16:13:31.323Z,15.93
2023-04-08T16:16:01.543Z,15.85
2023-04-08T16:18:28.387Z,15.86
2023-04-08T16:20:55.191Z,17.25
2023-04-08T16:23:21.721Z,16.61
2023-04-08T16:25:48.297Z,18.42
2023-04-08T16:28:14.865Z,18.23
2023-04-08T16:30:46.316Z,19.18
2023-04-08T16:33:12.840Z,18.06
2023-04-08T16:35:39.966Z,16.69
2023-04-08T16:38:06.511Z,17.82
2023-04-08T16:40:33.642Z,18.11
2023-04-08T16:43:00.856Z,18.24
2023-04-08T16:45:30.956Z,18.51
2023-04-08T16:47:57.683Z,19.03
2023-04-08T16:50:24.609Z,19.96
2023-04-08T16:52:51.587Z,19.23
2023-04-08T16:55:18.818Z,19.84
2023-04-08T16:57:45.338Z,18.59
2023-04-08T17:00:12.186Z,17.20
2023-04-08T17:02:38.869Z,16.89
2023-04-08T17:05:06.287Z,17.38
2023-04-08T17:07:32.902Z,15.92
2023-04-08T17:09:59.686Z,17.52
2023-04-08T17:12:26.377Z,18.99
2023-04-08T17:14:52.939Z,19.05
2023-04-08T17:17:19.476Z,17.93
2023-04-08T17:19:46.012Z,19.01
2023-04-08T17:22:12.518Z,18.48
2023-04-08T17:24:39.181Z,19.84
2023-04-08T17:27:06.092Z,21.01
2023-04-08T17:29:32.637Z,20.10
2023-04-08T17:31:59.299Z,17.58
2023-04-08T17:34:26.461Z,17.04
2023-04-08T17:36:52.965Z,19.41
2023-04-08T17:39:19.524Z,19.60
2023-04-08T17:41:46.283Z,19.72
2023-04-08T17:44:12.981Z,19.96
2023-04-08T17:46:39.497Z,18.56
2023-04-08T17:49:06.039Z,20.05
2023-04-08T17:51:32.967Z,21.34
2023-04-08T17:53:59.574Z,20.85
2023-04-08T17:56:27.757Z,21.19
2023-04-08T17:58:54.440Z,22.53
2023-04-08T18:01:22.562Z,23.39
2023-04-08T18:03:51.964Z,23.58
2023-04-08T18:06:18.842Z,23.04
2023-04-08T18:08:45.643Z,22.20
2023-04-08T18:11:12.254Z,22.01
2023-04-08T18:13:38.814Z,22.04
2023-04-08T18:16:05.605Z,22.21
2023-04-08T18:18:32.167Z,21.78
2023-04-08T18:20:58.704Z,22.43
2023-04-08T18:23:25.249Z,22.41
2023-04-08T18:25:51.929Z,22.14
2023-04-08T18:28:18.587Z,21.74
2023-04-08T18:30:45.372Z,20.51
2023-04-08T18:33:12.013Z,20.08
2023-04-08T18:35:38.519Z,19.98
2023-04-08T18:38:05.036Z,20.16
2023-04-08T18:40:31.632Z,21.70
2023-04-08T18:43:02.057Z,20.87
2023-04-08T18:45:29.604Z,19.62
2023-04-08T18:47:56.492Z,17.50
2023-04-08T18:50:23.560Z,21.31
2023-04-08T18:52:50.076Z,21.17
2023-04-08T18:55:16.831Z,22.07
2023-04-08T18:57:43.348Z,21.52
2023-04-08T19:00:10.665Z,21.15
2023-04-08T19:02:37.521Z,22.24
2023-04-08T19:05:04.221Z,22.55
2023-04-08T19:07:30.925Z,22.63
2023-04-08T19:09:58.555Z,22.08
2023-04-08T19:12:26.179Z,20.62
2023-04-08T19:14:55.539Z,21.39
2023-04-08T19:17:22.324Z,21.66
2023-04-08T19:19:48.930Z,22.27
2023-04-08T19:22:16.590Z,22.82
2023-04-08T19:24:43.762Z,22.83
2023-04-08T19:27:10.392Z,22.21
2023-04-08T19:29:37.238Z,22.21
2023-04-08T19:32:04.385Z,23.09
2023-04-08T19:34:31.036Z,24.34
2023-04-08T19:36:57.635Z,26.74
2023-04-08T19:39:26.402Z,25.54
2023-04-08T19:41:54.124Z,25.37
2023-04-08T19:44:20.909Z,24.92
2023-04-08T19:46:47.723Z,21.72
2023-04-08T19:49:15.025Z,24.37
2023-04-08T19:51:41.744Z,24.33
2023-04-08T19:54:08.464Z,23.68
2023-04-08T19:56:35.327Z,23.23
2023-04-08T19:59:01.994Z,24.14
2023-04-08T20:01:29.107Z,25.20
2023-04-08T20:06:40.276Z,26.76
2023-04-08T20:09:06.839Z,26.15
2023-04-08T20:11:33.526Z,22.77
2023-04-08T20:14:00.242Z,23.06
2023-04-08T20:16:27.012Z,23.13
2023-04-08T20:18:53.702Z,22.01
2023-04-08T20:21:20.268Z,21.25
2023-04-08T20:23:47.299Z,22.52
2023-04-08T20:26:14.451Z,22.68
2023-04-08T20:28:43.361Z,22.52
2023-04-08T20:31:10.408Z,22.71
2023-04-08T20:33:43.496Z,18.83
2023-04-08T20:36:12.384Z,16.51
2023-04-08T20:38:39.507Z,18.86
2023-04-08T20:41:06.968Z,19.12
2023-04-08T20:43:33.636Z,20.27
2023-04-08T20:46:01.104Z,17.63
2023-04-08T20:48:29.377Z,19.24
2023-04-08T20:50:56.332Z,16.31
2023-04-08T20:53:23.703Z,18.78
2023-04-08T20:55:50.301Z,18.59
2023-04-08T20:58:16.846Z,19.33
2023-04-08T21:00:43.362Z,18.07
2023-04-08T21:03:10.165Z,19.51
2023-04-08T21:05:37.765Z,19.19
2023-04-08T21:08:04.281Z,20.06
2023-04-08T21:10:30.817Z,19.08
2023-04-08T21:12:57.345Z,18.84
2023-04-08T21:15:23.870Z,19.30
2023-04-08T21:17:50.440Z,20.28
2023-04-08T21:20:17.082Z,19.79
2023-04-08T21:22:43.688Z,20.73
2023-04-08T21:25:10.533Z,20.67
2023-04-08T21:27:37.823Z,19.48
2023-04-08T21:30:04.546Z,20.31
2023-04-08T21:32:31.324Z,22.40
2023-04-08T21:34:57.882Z,20.63
2023-04-08T21:37:24.412Z,21.91
2023-04-08T21:39:51.464Z,19.82
2023-04-08T21:42:20.354Z,23.01
2023-04-08T21:44:46.850Z,21.87
2023-04-08T21:47:13.330Z,21.79
2023-04-08T21:49:39.789Z,23.58
2023-04-08T21:52:06.802Z,22.89
2023-04-08T21:54:33.331Z,24.14
2023-04-08T21:56:59.961Z,23.38
2023-04-08T21:59:27.749Z,20.91
2023-04-08T22:01:54.366Z,24.30
2023-04-08T22:04:21.223Z,24.65
2023-04-08T22:06:51.184Z,24.76
2023-04-08T22:09:17.938Z,26.05
2023-04-08T22:11:44.532Z,25.36
2023-04-08T22:14:11.051Z,27.49
2023-04-08T22:16:38.238Z,26.02
2023-04-08T22:19:04.934Z,25.88
2023-04-08T22:21:31.617Z,26.70
2023-04-08T22:23:58.194Z,27.62
2023-04-08T22:26:24.753Z,25.69
2023-04-08T22:28:51.588Z,26.37
2023-04-08T22:31:18.449Z,28.00
2023-04-08T22:33:45.064Z,28.42
2023-04-08T22:36:11.604Z,29.12
2023-04-08T22:38:38.171Z,29.08
2023-04-08T22:41:04.809Z,29.11
2023-04-08T22:43:31.296Z,28.63
2023-04-08T22:45:57.821Z,28.06
2023-04-08T22:48:24.315Z,27.45
2023-04-08T22:50:51.366Z,28.14
2023-04-08T22:53:17.870Z,28.15
2023-04-08T22:55:44.426Z,27.49
2023-04-08T22:58:10.976Z,29.29
2023-04-08T23:00:37.786Z,28.39
2023-04-08T23:03:05.027Z,27.83
2023-04-08T23:05:31.750Z,27.93
2023-04-08T23:07:58.307Z,27.45
2023-04-08T23:10:24.856Z,28.94
2023-04-08T23:12:51.449Z,28.59
2023-04-08T23:15:18.111Z,28.25
2023-04-08T23:17:44.692Z,28.59
2023-04-08T23:20:11.495Z,28.40
2023-04-08T23:22:38.002Z,29.54
2023-04-08T23:25:04.852Z,29.62
2023-04-08T23:27:31.415Z,30.25
2023-04-08T23:29:58.012Z,29.76
2023-04-08T23:32:24.521Z,30.18
2023-04-08T23:34:51.010Z,28.07
2023-04-08T23:37:17.510Z,28.08
2023-04-08T23:39:43.993Z,29.93
2023-04-08T23:42:10.503Z,30.37
2023-04-08T23:44:36.933Z,30.35
2023-04-08T23:47:03.445Z,30.76
2023-04-08T23:49:30.002Z,30.47
2023-04-08T23:51:56.475Z,28.18
2023-04-08T23:54:23.117Z,30.21
2023-04-08T23:56:49.736Z,30.55
2023-04-08T23:59:16.344Z,30.00
